sensor_id;sensor_type;location;lat;lon;timestamp;P1;durP1;ratioP1;P2;durP2;ratioP2
52918;SDS011;38793;52.690;6.812;2024-03-17T00:00:50;4.47;;;1.17;;
52918;SDS011;38793;52.690;6.812;2024-03-17T00:03:15;4.93;;;2.13;;
52918;SDS011;38793;52.690;6.812;2024-03-17T00:05:41;8.47;;;2.70;;
52918;SDS011;38793;52.690;6.812;2024-03-17T00:08:07;3.33;;;2.23;;
52918;SDS011;38793;52.690;6.812;2024-03-17T00:10:33;1.98;;;1.00;;
52918;SDS011;38793;52.690;6.812;2024-03-17T00:12:59;2.33;;;1.30;;
52918;SDS011;38793;52.690;6.812;2024-03-17T00:15:25;5.63;;;2.60;;
52918;SDS011;38793;52.690;6.812;2024-03-17T00:17:51;5.03;;;1.92;;
52918;SDS011;38793;52.690;6.812;2024-03-17T00:20:17;3.78;;;1.70;;
52918;SDS011;38793;52.690;6.812;2024-03-17T00:22:47;7.90;;;3.22;;
52918;SDS011;38793;52.690;6.812;2024-03-17T00:25:13;7.55;;;2.50;;
52918;SDS011;38793;52.690;6.812;2024-03-17T00:27:39;10.00;;;2.53;;
52918;SDS011;38793;52.690;6.812;2024-03-17T00:30:08;6.25;;;2.60;;
52918;SDS011;38793;52.690;6.812;2024-03-17T00:32:40;4.93;;;1.65;;
52918;SDS011;38793;52.690;6.812;2024-03-17T00:35:07;2.72;;;1.80;;
52918;SDS011;38793;52.690;6.812;2024-03-17T00:37:34;2.63;;;1.15;;
52918;SDS011;38793;52.690;6.812;2024-03-17T00:40:03;6.13;;;2.30;;
52918;SDS011;38793;52.690;6.812;2024-03-17T00:42:29;17.42;;;3.38;;
52918;SDS011;38793;52.690;6.812;2024-03-17T00:44:55;5.43;;;1.73;;
52918;SDS011;38793;52.690;6.812;2024-03-17T00:47:21;12.82;;;2.13;;
52918;SDS011;38793;52.690;6.812;2024-03-17T00:49:47;6.22;;;1.95;;
52918;SDS011;38793;52.690;6.812;2024-03-17T00:52:15;10.02;;;1.35;;
52918;SDS011;38793;52.690;6.812;2024-03-17T00:54:41;2.08;;;1.00;;
52918;SDS011;38793;52.690;6.812;2024-03-17T00:57:07;3.05;;;1.83;;
52918;SDS011;38793;52.690;6.812;2024-03-17T00:59:33;4.97;;;2.47;;
52918;SDS011;38793;52.690;6.812;2024-03-17T01:01:58;5.43;;;2.97;;
52918;SDS011;38793;52.690;6.812;2024-03-17T01:04:24;9.73;;;2.00;;
52918;SDS011;38793;52.690;6.812;2024-03-17T01:06:50;7.47;;;1.55;;
52918;SDS011;38793;52.690;6.812;2024-03-17T01:09:15;3.70;;;1.63;;
52918;SDS011;38793;52.690;6.812;2024-03-17T01:11:41;2.00;;;1.67;;
52918;SDS011;38793;52.690;6.812;2024-03-17T01:14:07;2.30;;;1.60;;
52918;SDS011;38793;52.690;6.812;2024-03-17T01:16:33;1.45;;;1.30;;
52918;SDS011;38793;52.690;6.812;2024-03-17T01:18:59;3.80;;;1.13;;
52918;SDS011;38793;52.690;6.812;2024-03-17T01:21:24;7.80;;;2.53;;
52918;SDS011;38793;52.690;6.812;2024-03-17T01:23:50;4.93;;;1.60;;
52918;SDS011;38793;52.690;6.812;2024-03-17T01:26:16;2.67;;;2.13;;
52918;SDS011;38793;52.690;6.812;2024-03-17T01:28:42;7.00;;;2.73;;
52918;SDS011;38793;52.690;6.812;2024-03-17T01:31:07;6.65;;;1.75;;
52918;SDS011;38793;52.690;6.812;2024-03-17T01:33:34;6.18;;;2.92;;
52918;SDS011;38793;52.690;6.812;2024-03-17T01:36:00;5.05;;;2.28;;
52918;SDS011;38793;52.690;6.812;2024-03-17T01:38:26;3.90;;;2.72;;
52918;SDS011;38793;52.690;6.812;2024-03-17T01:40:51;4.10;;;2.30;;
52918;SDS011;38793;52.690;6.812;2024-03-17T01:43:17;6.97;;;2.87;;
52918;SDS011;38793;52.690;6.812;2024-03-17T01:45:43;12.98;;;4.15;;
52918;SDS011;38793;52.690;6.812;2024-03-17T01:48:13;4.83;;;3.10;;
52918;SDS011;38793;52.690;6.812;2024-03-17T01:50:40;9.85;;;3.53;;
52918;SDS011;38793;52.690;6.812;2024-03-17T01:53:07;22.05;;;4.25;;
52918;SDS011;38793;52.690;6.812;2024-03-17T01:55:38;7.22;;;3.40;;
52918;SDS011;38793;52.690;6.812;2024-03-17T01:58:07;4.60;;;3.13;;
52918;SDS011;38793;52.690;6.812;2024-03-17T02:00:35;3.70;;;2.90;;
52918;SDS011;38793;52.690;6.812;2024-03-17T02:03:02;4.47;;;2.53;;
52918;SDS011;38793;52.690;6.812;2024-03-17T02:05:36;15.00;;;3.00;;
52918;SDS011;38793;52.690;6.812;2024-03-17T02:10:34;65.13;;;4.55;;
52918;SDS011;38793;52.690;6.812;2024-03-17T02:13:00;8.23;;;2.90;;
52918;SDS011;38793;52.690;6.812;2024-03-17T02:15:28;2.70;;;1.52;;
52918;SDS011;38793;52.690;6.812;2024-03-17T02:17:54;5.88;;;1.85;;
52918;SDS011;38793;52.690;6.812;2024-03-17T02:20:20;3.42;;;2.72;;
52918;SDS011;38793;52.690;6.812;2024-03-17T02:22:50;3.95;;;2.40;;
52918;SDS011;38793;52.690;6.812;2024-03-17T02:25:15;2.88;;;1.75;;
52918;SDS011;38793;52.690;6.812;2024-03-17T02:27:41;5.72;;;2.08;;
52918;SDS011;38793;52.690;6.812;2024-03-17T02:30:07;3.73;;;2.27;;
52918;SDS011;38793;52.690;6.812;2024-03-17T02:32:34;3.42;;;2.55;;
52918;SDS011;38793;52.690;6.812;2024-03-17T02:37:26;2.80;;;2.35;;
52918;SDS011;38793;52.690;6.812;2024-03-17T02:39:52;5.78;;;2.83;;
52918;SDS011;38793;52.690;6.812;2024-03-17T02:42:18;5.25;;;3.10;;
52918;SDS011;38793;52.690;6.812;2024-03-17T02:44:44;10.25;;;4.45;;
52918;SDS011;38793;52.690;6.812;2024-03-17T02:49:36;11.45;;;3.97;;
52918;SDS011;38793;52.690;6.812;2024-03-17T02:52:03;7.95;;;3.90;;
52918;SDS011;38793;52.690;6.812;2024-03-17T02:54:34;11.73;;;4.20;;
52918;SDS011;38793;52.690;6.812;2024-03-17T02:57:00;7.45;;;3.97;;
52918;SDS011;38793;52.690;6.812;2024-03-17T02:59:26;4.75;;;3.17;;
52918;SDS011;38793;52.690;6.812;2024-03-17T03:01:52;3.83;;;2.77;;
52918;SDS011;38793;52.690;6.812;2024-03-17T03:04:18;6.82;;;2.95;;
52918;SDS011;38793;52.690;6.812;2024-03-17T03:06:43;7.07;;;3.00;;
52918;SDS011;38793;52.690;6.812;2024-03-17T03:09:09;10.40;;;3.10;;
52918;SDS011;38793;52.690;6.812;2024-03-17T03:11:39;5.40;;;2.80;;
52918;SDS011;38793;52.690;6.812;2024-03-17T03:16:32;5.47;;;2.60;;
52918;SDS011;38793;52.690;6.812;2024-03-17T03:18:58;5.60;;;1.80;;
52918;SDS011;38793;52.690;6.812;2024-03-17T03:21:24;7.30;;;2.35;;
52918;SDS011;38793;52.690;6.812;2024-03-17T03:23:50;11.23;;;2.97;;
52918;SDS011;38793;52.690;6.812;2024-03-17T03:26:16;7.68;;;2.95;;
52918;SDS011;38793;52.690;6.812;2024-03-17T03:28:43;4.55;;;3.08;;
52918;SDS011;38793;52.690;6.812;2024-03-17T03:31:12;4.88;;;2.47;;
52918;SDS011;38793;52.690;6.812;2024-03-17T03:33:39;5.50;;;2.88;;
52918;SDS011;38793;52.690;6.812;2024-03-17T03:36:08;7.88;;;3.30;;
52918;SDS011;38793;52.690;6.812;2024-03-17T03:38:34;6.88;;;3.33;;
52918;SDS011;38793;52.690;6.812;2024-03-17T03:41:05;8.75;;;3.28;;
52918;SDS011;38793;52.690;6.812;2024-03-17T03:43:35;9.38;;;3.28;;
52918;SDS011;38793;52.690;6.812;2024-03-17T03:46:01;6.60;;;3.00;;
52918;SDS011;38793;52.690;6.812;2024-03-17T03:48:27;8.00;;;3.00;;
52918;SDS011;38793;52.690;6.812;2024-03-17T03:50:53;6.90;;;3.10;;
52918;SDS011;38793;52.690;6.812;2024-03-17T03:53:19;3.15;;;2.80;;
52918;SDS011;38793;52.690;6.812;2024-03-17T03:55:45;5.40;;;2.78;;
52918;SDS011;38793;52.690;6.812;2024-03-17T03:58:11;10.23;;;4.13;;
52918;SDS011;38793;52.690;6.812;2024-03-17T04:00:37;3.83;;;3.47;;
52918;SDS011;38793;52.690;6.812;2024-03-17T04:03:04;8.27;;;4.20;;
52918;SDS011;38793;52.690;6.812;2024-03-17T04:05:30;7.95;;;4.40;;
52918;SDS011;38793;52.690;6.812;2024-03-17T04:07:57;11.23;;;5.28;;
52918;SDS011;38793;52.690;6.812;2024-03-17T04:10:23;10.93;;;3.97;;
52918;SDS011;38793;52.690;6.812;2024-03-17T04:12:50;10.02;;;4.28;;
52918;SDS011;38793;52.690;6.812;2024-03-17T04:15:16;8.57;;;3.42;;
52918;SDS011;38793;52.690;6.812;2024-03-17T04:17:42;7.88;;;4.38;;
52918;SDS011;38793;52.690;6.812;2024-03-17T04:20:08;7.93;;;3.78;;
52918;SDS011;38793;52.690;6.812;2024-03-17T04:22:35;16.70;;;5.40;;
52918;SDS011;38793;52.690;6.812;2024-03-17T04:25:01;14.48;;;5.97;;
52918;SDS011;38793;52.690;6.812;2024-03-17T04:27:29;11.43;;;5.85;;
52918;SDS011;38793;52.690;6.812;2024-03-17T04:29:55;16.60;;;6.10;;
52918;SDS011;38793;52.690;6.812;2024-03-17T04:32:22;16.92;;;5.97;;
52918;SDS011;38793;52.690;6.812;2024-03-17T04:34:48;13.30;;;4.90;;
52918;SDS011;38793;52.690;6.812;2024-03-17T04:37:14;6.57;;;4.82;;
52918;SDS011;38793;52.690;6.812;2024-03-17T04:39:41;9.45;;;4.85;;
52918;SDS011;38793;52.690;6.812;2024-03-17T04:42:09;12.13;;;5.72;;
52918;SDS011;38793;52.690;6.812;2024-03-17T04:44:35;12.23;;;6.07;;
52918;SDS011;38793;52.690;6.812;2024-03-17T04:47:02;12.80;;;6.65;;
52918;SDS011;38793;52.690;6.812;2024-03-17T04:49:32;11.20;;;6.13;;
52918;SDS011;38793;52.690;6.812;2024-03-17T04:52:00;8.23;;;5.68;;
52918;SDS011;38793;52.690;6.812;2024-03-17T04:54:25;12.73;;;6.33;;
52918;SDS011;38793;52.690;6.812;2024-03-17T04:56:51;15.97;;;6.23;;
52918;SDS011;38793;52.690;6.812;2024-03-17T04:59:17;13.95;;;6.78;;
52918;SDS011;38793;52.690;6.812;2024-03-17T05:01:42;11.00;;;6.93;;
52918;SDS011;38793;52.690;6.812;2024-03-17T05:04:08;17.50;;;6.63;;
52918;SDS011;38793;52.690;6.812;2024-03-17T05:06:34;12.77;;;7.97;;
52918;SDS011;38793;52.690;6.812;2024-03-17T05:08:59;19.67;;;8.07;;
52918;SDS011;38793;52.690;6.812;2024-03-17T05:11:25;16.37;;;7.83;;
52918;SDS011;38793;52.690;6.812;2024-03-17T05:13:51;14.82;;;7.40;;
52918;SDS011;38793;52.690;6.812;2024-03-17T05:16:17;25.87;;;8.97;;
52918;SDS011;38793;52.690;6.812;2024-03-17T05:18:42;14.93;;;7.97;;
52918;SDS011;38793;52.690;6.812;2024-03-17T05:21:08;15.13;;;7.57;;
52918;SDS011;38793;52.690;6.812;2024-03-17T05:23:34;12.20;;;7.50;;
52918;SDS011;38793;52.690;6.812;2024-03-17T05:26:01;20.40;;;8.05;;
52918;SDS011;38793;52.690;6.812;2024-03-17T05:28:29;15.30;;;7.05;;
52918;SDS011;38793;52.690;6.812;2024-03-17T05:33:22;15.73;;;6.63;;
52918;SDS011;38793;52.690;6.812;2024-03-17T05:35:49;18.42;;;8.35;;
52918;SDS011;38793;52.690;6.812;2024-03-17T05:38:25;15.95;;;7.18;;
52918;SDS011;38793;52.690;6.812;2024-03-17T05:40:55;13.38;;;7.40;;
52918;SDS011;38793;52.690;6.812;2024-03-17T05:43:21;14.10;;;7.43;;
52918;SDS011;38793;52.690;6.812;2024-03-17T05:45:49;15.48;;;7.70;;
52918;SDS011;38793;52.690;6.812;2024-03-17T05:48:34;11.88;;;6.53;;
52918;SDS011;38793;52.690;6.812;2024-03-17T05:51:03;14.90;;;7.38;;
52918;SDS011;38793;52.690;6.812;2024-03-17T05:53:29;15.00;;;7.20;;
52918;SDS011;38793;52.690;6.812;2024-03-17T05:55:58;11.10;;;7.05;;
52918;SDS011;38793;52.690;6.812;2024-03-17T05:58:24;12.90;;;6.80;;
52918;SDS011;38793;52.690;6.812;2024-03-17T06:00:50;17.65;;;8.63;;
52918;SDS011;38793;52.690;6.812;2024-03-17T06:03:16;19.50;;;7.97;;
52918;SDS011;38793;52.690;6.812;2024-03-17T06:08:11;11.85;;;7.07;;
52918;SDS011;38793;52.690;6.812;2024-03-17T06:10:37;17.10;;;6.55;;
52918;SDS011;38793;52.690;6.812;2024-03-17T06:13:08;13.20;;;6.75;;
52918;SDS011;38793;52.690;6.812;2024-03-17T06:15:37;14.80;;;6.82;;
52918;SDS011;38793;52.690;6.812;2024-03-17T06:18:03;13.95;;;6.32;;
52918;SDS011;38793;52.690;6.812;2024-03-17T06:20:29;12.25;;;6.45;;
52918;SDS011;38793;52.690;6.812;2024-03-17T06:22:55;12.60;;;5.87;;
52918;SDS011;38793;52.690;6.812;2024-03-17T06:25:22;12.70;;;5.50;;
52918;SDS011;38793;52.690;6.812;2024-03-17T06:27:49;13.70;;;6.43;;
52918;SDS011;38793;52.690;6.812;2024-03-17T06:30:15;20.35;;;7.10;;
52918;SDS011;38793;52.690;6.812;2024-03-17T06:32:41;19.50;;;7.47;;
52918;SDS011;38793;52.690;6.812;2024-03-17T06:35:08;13.55;;;6.03;;
52918;SDS011;38793;52.690;6.812;2024-03-17T06:40:00;15.00;;;6.43;;
52918;SDS011;38793;52.690;6.812;2024-03-17T06:44:52;17.60;;;6.30;;
52918;SDS011;38793;52.690;6.812;2024-03-17T06:47:17;23.07;;;6.57;;
52918;SDS011;38793;52.690;6.812;2024-03-17T06:49:44;16.93;;;6.20;;
52918;SDS011;38793;52.690;6.812;2024-03-17T06:52:10;18.10;;;6.82;;
52918;SDS011;38793;52.690;6.812;2024-03-17T06:54:36;13.15;;;6.18;;
52918;SDS011;38793;52.690;6.812;2024-03-17T06:57:01;16.17;;;6.45;;
52918;SDS011;38793;52.690;6.812;2024-03-17T06:59:27;23.27;;;7.07;;
52918;SDS011;38793;52.690;6.812;2024-03-17T07:01:53;15.20;;;5.80;;
52918;SDS011;38793;52.690;6.812;2024-03-17T07:04:19;13.80;;;5.65;;
52918;SDS011;38793;52.690;6.812;2024-03-17T07:06:46;15.05;;;6.20;;
52918;SDS011;38793;52.690;6.812;2024-03-17T07:09:12;18.83;;;7.07;;
52918;SDS011;38793;52.690;6.812;2024-03-17T07:11:37;18.00;;;6.20;;
52918;SDS011;38793;52.690;6.812;2024-03-17T07:14:03;16.93;;;5.83;;
52918;SDS011;38793;52.690;6.812;2024-03-17T07:16:29;11.95;;;5.55;;
52918;SDS011;38793;52.690;6.812;2024-03-17T07:18:57;11.38;;;5.82;;
52918;SDS011;38793;52.690;6.812;2024-03-17T07:21:22;15.38;;;6.00;;
52918;SDS011;38793;52.690;6.812;2024-03-17T07:23:48;14.90;;;5.27;;
52918;SDS011;38793;52.690;6.812;2024-03-17T07:26:14;12.60;;;6.40;;
52918;SDS011;38793;52.690;6.812;2024-03-17T07:28:39;13.48;;;5.25;;
52918;SDS011;38793;52.690;6.812;2024-03-17T07:31:06;15.05;;;6.15;;
52918;SDS011;38793;52.690;6.812;2024-03-17T07:33:33;10.70;;;5.72;;
52918;SDS011;38793;52.690;6.812;2024-03-17T07:35:59;20.67;;;5.63;;
52918;SDS011;38793;52.690;6.812;2024-03-17T07:38:26;13.88;;;5.65;;
52918;SDS011;38793;52.690;6.812;2024-03-17T07:40:56;11.85;;;5.65;;
52918;SDS011;38793;52.690;6.812;2024-03-17T07:43:22;13.93;;;6.10;;
52918;SDS011;38793;52.690;6.812;2024-03-17T07:48:31;13.88;;;6.95;;
52918;SDS011;38793;52.690;6.812;2024-03-17T07:51:01;12.65;;;5.20;;
52918;SDS011;38793;52.690;6.812;2024-03-17T07:53:29;11.70;;;5.85;;
52918;SDS011;38793;52.690;6.812;2024-03-17T07:56:02;13.55;;;5.78;;
52918;SDS011;38793;52.690;6.812;2024-03-17T07:58:30;13.27;;;7.18;;
52918;SDS011;38793;52.690;6.812;2024-03-17T08:01:00;17.10;;;6.32;;
52918;SDS011;38793;52.690;6.812;2024-03-17T08:03:27;13.63;;;6.72;;
52918;SDS011;38793;52.690;6.812;2024-03-17T08:05:53;14.95;;;6.43;;
52918;SDS011;38793;52.690;6.812;2024-03-17T08:08:19;10.63;;;6.18;;
52918;SDS011;38793;52.690;6.812;2024-03-17T08:10:46;14.85;;;6.32;;
52918;SDS011;38793;52.690;6.812;2024-03-17T08:13:13;8.77;;;6.63;;
52918;SDS011;38793;52.690;6.812;2024-03-17T08:15:43;15.65;;;6.05;;
52918;SDS011;38793;52.690;6.812;2024-03-17T08:18:10;8.75;;;6.20;;
52918;SDS011;38793;52.690;6.812;2024-03-17T08:20:39;11.65;;;6.43;;
52918;SDS011;38793;52.690;6.812;2024-03-17T08:23:06;12.65;;;6.57;;
52918;SDS011;38793;52.690;6.812;2024-03-17T08:25:32;10.63;;;6.70;;
52918;SDS011;38793;52.690;6.812;2024-03-17T08:27:59;11.77;;;6.28;;
52918;SDS011;38793;52.690;6.812;2024-03-17T08:32:51;11.00;;;5.18;;
52918;SDS011;38793;52.690;6.812;2024-03-17T08:35:17;9.23;;;5.07;;
52918;SDS011;38793;52.690;6.812;2024-03-17T08:37:42;10.60;;;5.37;;
52918;SDS011;38793;52.690;6.812;2024-03-17T08:42:35;13.65;;;6.30;;
52918;SDS011;38793;52.690;6.812;2024-03-17T08:45:01;14.10;;;6.65;;
52918;SDS011;38793;52.690;6.812;2024-03-17T08:47:27;19.08;;;6.93;;
52918;SDS011;38793;52.690;6.812;2024-03-17T08:49:54;21.33;;;6.80;;
52918;SDS011;38793;52.690;6.812;2024-03-17T08:52:19;13.20;;;6.80;;
52918;SDS011;38793;52.690;6.812;2024-03-17T08:54:46;34.78;;;7.90;;
52918;SDS011;38793;52.690;6.812;2024-03-17T08:59:38;14.10;;;7.25;;
52918;SDS011;38793;52.690;6.812;2024-03-17T09:02:04;18.07;;;7.63;;
52918;SDS011;38793;52.690;6.812;2024-03-17T09:04:31;11.65;;;7.30;;
52918;SDS011;38793;52.690;6.812;2024-03-17T09:06:57;17.40;;;7.70;;
52918;SDS011;38793;52.690;6.812;2024-03-17T09:09:22;13.70;;;7.97;;
52918;SDS011;38793;52.690;6.812;2024-03-17T09:11:48;10.75;;;7.15;;
52918;SDS011;38793;52.690;6.812;2024-03-17T09:14:14;23.03;;;7.87;;
52918;SDS011;38793;52.690;6.812;2024-03-17T09:16:39;14.20;;;9.38;;
52918;SDS011;38793;52.690;6.812;2024-03-17T09:19:05;18.23;;;10.03;;
52918;SDS011;38793;52.690;6.812;2024-03-17T09:21:33;23.10;;;10.35;;
52918;SDS011;38793;52.690;6.812;2024-03-17T09:23:59;19.38;;;9.45;;
52918;SDS011;38793;52.690;6.812;2024-03-17T09:26:25;22.05;;;10.80;;
52918;SDS011;38793;52.690;6.812;2024-03-17T09:28:50;14.75;;;8.75;;
52918;SDS011;38793;52.690;6.812;2024-03-17T09:31:16;12.87;;;8.70;;
52918;SDS011;38793;52.690;6.812;2024-03-17T09:33:41;16.70;;;8.77;;
52918;SDS011;38793;52.690;6.812;2024-03-17T09:36:08;15.95;;;8.85;;
52918;SDS011;38793;52.690;6.812;2024-03-17T09:38:39;13.82;;;8.85;;
52918;SDS011;38793;52.690;6.812;2024-03-17T09:41:06;15.25;;;8.68;;
52918;SDS011;38793;52.690;6.812;2024-03-17T09:43:32;13.85;;;7.68;;
52918;SDS011;38793;52.690;6.812;2024-03-17T09:46:02;16.65;;;9.23;;
52918;SDS011;38793;52.690;6.812;2024-03-17T09:48:28;12.90;;;8.82;;
52918;SDS011;38793;52.690;6.812;2024-03-17T09:51:01;13.85;;;9.05;;
52918;SDS011;38793;52.690;6.812;2024-03-17T09:53:28;15.70;;;8.43;;
52918;SDS011;38793;52.690;6.812;2024-03-17T09:56:29;14.35;;;8.68;;
52918;SDS011;38793;52.690;6.812;2024-03-17T09:58:48;13.25;;;8.70;;
52918;SDS011;38793;52.690;6.812;2024-03-17T10:01:15;13.27;;;8.88;;
52918;SDS011;38793;52.690;6.812;2024-03-17T10:03:42;11.43;;;9.02;;
52918;SDS011;38793;52.690;6.812;2024-03-17T10:06:20;12.50;;;9.45;;
52918;SDS011;38793;52.690;6.812;2024-03-17T10:08:47;13.25;;;9.02;;
52918;SDS011;38793;52.690;6.812;2024-03-17T10:11:16;15.48;;;9.20;;
52918;SDS011;38793;52.690;6.812;2024-03-17T10:13:43;15.55;;;8.80;;
52918;SDS011;38793;52.690;6.812;2024-03-17T10:16:23;12.07;;;9.15;;
52918;SDS011;38793;52.690;6.812;2024-03-17T10:18:50;12.82;;;9.00;;
52918;SDS011;38793;52.690;6.812;2024-03-17T10:21:30;21.17;;;10.00;;
52918;SDS011;38793;52.690;6.812;2024-03-17T10:24:05;16.43;;;9.70;;
52918;SDS011;38793;52.690;6.812;2024-03-17T10:29:01;13.23;;;8.10;;
52918;SDS011;38793;52.690;6.812;2024-03-17T10:31:29;9.70;;;8.48;;
52918;SDS011;38793;52.690;6.812;2024-03-17T10:34:01;10.20;;;8.05;;
52918;SDS011;38793;52.690;6.812;2024-03-17T10:36:27;13.75;;;8.68;;
52918;SDS011;38793;52.690;6.812;2024-03-17T10:38:53;12.77;;;7.43;;
52918;SDS011;38793;52.690;6.812;2024-03-17T10:41:20;10.48;;;7.95;;
52918;SDS011;38793;52.690;6.812;2024-03-17T10:43:47;12.05;;;7.32;;
52918;SDS011;38793;52.690;6.812;2024-03-17T10:46:14;8.00;;;7.10;;
52918;SDS011;38793;52.690;6.812;2024-03-17T10:48:41;10.95;;;7.10;;
52918;SDS011;38793;52.690;6.812;2024-03-17T10:51:09;13.55;;;8.20;;
52918;SDS011;38793;52.690;6.812;2024-03-17T10:53:42;12.68;;;7.75;;
52918;SDS011;38793;52.690;6.812;2024-03-17T10:56:10;9.82;;;7.25;;
52918;SDS011;38793;52.690;6.812;2024-03-17T10:58:44;10.13;;;7.72;;
52918;SDS011;38793;52.690;6.812;2024-03-17T11:01:16;7.90;;;6.60;;
52918;SDS011;38793;52.690;6.812;2024-03-17T11:03:45;9.85;;;7.78;;
52918;SDS011;38793;52.690;6.812;2024-03-17T11:06:12;10.80;;;7.75;;
52918;SDS011;38793;52.690;6.812;2024-03-17T11:08:38;9.65;;;7.82;;
52918;SDS011;38793;52.690;6.812;2024-03-17T11:11:07;10.93;;;7.72;;
52918;SDS011;38793;52.690;6.812;2024-03-17T11:13:34;8.40;;;7.53;;
52918;SDS011;38793;52.690;6.812;2024-03-17T11:16:01;8.30;;;7.15;;
52918;SDS011;38793;52.690;6.812;2024-03-17T11:18:35;7.28;;;6.13;;
52918;SDS011;38793;52.690;6.812;2024-03-17T11:21:06;7.75;;;6.10;;
52918;SDS011;38793;52.690;6.812;2024-03-17T11:23:37;10.32;;;6.97;;
52918;SDS011;38793;52.690;6.812;2024-03-17T11:36:53;10.80;;;6.22;;
52918;SDS011;38793;52.690;6.812;2024-03-17T11:39:19;11.43;;;8.00;;
52918;SDS011;38793;52.690;6.812;2024-03-17T11:41:50;8.75;;;6.90;;
52918;SDS011;38793;52.690;6.812;2024-03-17T11:47:02;8.48;;;6.97;;
52918;SDS011;38793;52.690;6.812;2024-03-17T11:49:32;7.53;;;5.90;;
52918;SDS011;38793;52.690;6.812;2024-03-17T11:52:02;10.52;;;6.25;;
52918;SDS011;38793;52.690;6.812;2024-03-17T11:54:33;9.68;;;6.72;;
52918;SDS011;38793;52.690;6.812;2024-03-17T11:57:06;11.98;;;8.18;;
52918;SDS011;38793;52.690;6.812;2024-03-17T11:59:36;10.55;;;7.57;;
52918;SDS011;38793;52.690;6.812;2024-03-17T12:02:16;8.70;;;7.72;;
52918;SDS011;38793;52.690;6.812;2024-03-17T12:04:47;7.65;;;6.85;;
52918;SDS011;38793;52.690;6.812;2024-03-17T12:07:15;10.27;;;7.85;;
52918;SDS011;38793;52.690;6.812;2024-03-17T12:09:42;9.57;;;7.47;;
52918;SDS011;38793;52.690;6.812;2024-03-17T12:14:41;9.07;;;7.38;;
52918;SDS011;38793;52.690;6.812;2024-03-17T12:17:08;8.63;;;7.40;;
52918;SDS011;38793;52.690;6.812;2024-03-17T12:19:35;8.32;;;6.70;;
52918;SDS011;38793;52.690;6.812;2024-03-17T12:22:02;10.07;;;7.13;;
52918;SDS011;38793;52.690;6.812;2024-03-17T12:24:34;11.30;;;7.47;;
52918;SDS011;38793;52.690;6.812;2024-03-17T12:27:03;10.68;;;6.75;;
52918;SDS011;38793;52.690;6.812;2024-03-17T12:29:31;8.93;;;7.55;;
52918;SDS011;38793;52.690;6.812;2024-03-17T12:31:58;8.60;;;6.50;;
52918;SDS011;38793;52.690;6.812;2024-03-17T12:34:27;10.13;;;7.53;;
52918;SDS011;38793;52.690;6.812;2024-03-17T12:36:54;6.82;;;6.13;;
52918;SDS011;38793;52.690;6.812;2024-03-17T12:39:27;8.27;;;6.15;;
52918;SDS011;38793;52.690;6.812;2024-03-17T12:42:01;8.80;;;6.97;;
52918;SDS011;38793;52.690;6.812;2024-03-17T12:44:28;10.55;;;6.35;;
52918;SDS011;38793;52.690;6.812;2024-03-17T12:46:57;10.10;;;7.20;;
52918;SDS011;38793;52.690;6.812;2024-03-17T12:49:28;7.63;;;6.93;;
52918;SDS011;38793;52.690;6.812;2024-03-17T12:51:54;8.27;;;7.47;;
52918;SDS011;38793;52.690;6.812;2024-03-17T12:54:21;10.02;;;7.05;;
52918;SDS011;38793;52.690;6.812;2024-03-17T12:56:49;8.00;;;7.22;;
52918;SDS011;38793;52.690;6.812;2024-03-17T12:59:41;9.82;;;7.18;;
52918;SDS011;38793;52.690;6.812;2024-03-17T13:02:26;7.90;;;7.18;;
52918;SDS011;38793;52.690;6.812;2024-03-17T13:07:51;10.25;;;8.05;;
52918;SDS011;38793;52.690;6.812;2024-03-17T13:10:19;11.88;;;8.25;;
52918;SDS011;38793;52.690;6.812;2024-03-17T13:12:46;8.35;;;7.15;;
52918;SDS011;38793;52.690;6.812;2024-03-17T13:15:15;11.00;;;8.02;;
52918;SDS011;38793;52.690;6.812;2024-03-17T13:17:42;10.13;;;8.60;;
52918;SDS011;38793;52.690;6.812;2024-03-17T13:20:12;13.15;;;7.57;;
52918;SDS011;38793;52.690;6.812;2024-03-17T13:22:41;9.25;;;8.30;;
52918;SDS011;38793;52.690;6.812;2024-03-17T13:25:12;9.30;;;8.40;;
52918;SDS011;38793;52.690;6.812;2024-03-17T13:27:39;10.18;;;7.78;;
52918;SDS011;38793;52.690;6.812;2024-03-17T13:30:04;7.77;;;6.97;;
52918;SDS011;38793;52.690;6.812;2024-03-17T13:32:31;12.00;;;8.88;;
52918;SDS011;38793;52.690;6.812;2024-03-17T13:34:57;8.55;;;7.75;;
52918;SDS011;38793;52.690;6.812;2024-03-17T13:37:23;9.55;;;8.05;;
52918;SDS011;38793;52.690;6.812;2024-03-17T13:39:49;9.90;;;8.07;;
52918;SDS011;38793;52.690;6.812;2024-03-17T13:42:14;9.38;;;6.78;;
52918;SDS011;38793;52.690;6.812;2024-03-17T13:44:41;10.32;;;8.85;;
52918;SDS011;38793;52.690;6.812;2024-03-17T13:47:07;8.98;;;7.65;;
52918;SDS011;38793;52.690;6.812;2024-03-17T13:49:33;10.30;;;8.63;;
52918;SDS011;38793;52.690;6.812;2024-03-17T13:51:58;10.05;;;8.45;;
52918;SDS011;38793;52.690;6.812;2024-03-17T13:54:24;8.88;;;7.43;;
52918;SDS011;38793;52.690;6.812;2024-03-17T13:56:50;8.48;;;7.53;;
52918;SDS011;38793;52.690;6.812;2024-03-17T13:59:16;11.00;;;8.20;;
52918;SDS011;38793;52.690;6.812;2024-03-17T14:04:14;11.02;;;7.63;;
52918;SDS011;38793;52.690;6.812;2024-03-17T14:06:44;7.68;;;6.88;;
52918;SDS011;38793;52.690;6.812;2024-03-17T14:09:11;9.60;;;7.65;;
52918;SDS011;38793;52.690;6.812;2024-03-17T14:11:37;8.82;;;8.02;;
52918;SDS011;38793;52.690;6.812;2024-03-17T14:14:06;9.15;;;8.32;;
52918;SDS011;38793;52.690;6.812;2024-03-17T14:16:33;11.65;;;8.82;;
52918;SDS011;38793;52.690;6.812;2024-03-17T14:18:58;9.68;;;8.27;;
52918;SDS011;38793;52.690;6.812;2024-03-17T14:23:51;9.50;;;7.55;;
52918;SDS011;38793;52.690;6.812;2024-03-17T14:26:17;10.80;;;7.80;;
52918;SDS011;38793;52.690;6.812;2024-03-17T14:28:43;12.65;;;8.25;;
52918;SDS011;38793;52.690;6.812;2024-03-17T14:31:08;8.82;;;7.32;;
52918;SDS011;38793;52.690;6.812;2024-03-17T14:33:35;8.63;;;7.10;;
52918;SDS011;38793;52.690;6.812;2024-03-17T14:36:01;8.57;;;7.77;;
52918;SDS011;38793;52.690;6.812;2024-03-17T14:38:26;8.55;;;7.53;;
52918;SDS011;38793;52.690;6.812;2024-03-17T14:40:52;9.70;;;8.38;;
52918;SDS011;38793;52.690;6.812;2024-03-17T14:43:18;10.32;;;7.85;;
52918;SDS011;38793;52.690;6.812;2024-03-17T14:45:44;9.75;;;7.13;;
52918;SDS011;38793;52.690;6.812;2024-03-17T14:48:10;9.30;;;7.43;;
52918;SDS011;38793;52.690;6.812;2024-03-17T14:50:38;9.63;;;7.63;;
52918;SDS011;38793;52.690;6.812;2024-03-17T14:53:04;13.18;;;7.95;;
52918;SDS011;38793;52.690;6.812;2024-03-17T14:55:30;10.88;;;7.85;;
52918;SDS011;38793;52.690;6.812;2024-03-17T14:57:57;9.25;;;8.23;;
52918;SDS011;38793;52.690;6.812;2024-03-17T15:00:26;10.77;;;7.68;;
52918;SDS011;38793;52.690;6.812;2024-03-17T15:02:51;11.00;;;7.55;;
52918;SDS011;38793;52.690;6.812;2024-03-17T15:05:17;10.60;;;8.53;;
52918;SDS011;38793;52.690;6.812;2024-03-17T15:07:50;10.38;;;7.55;;
52918;SDS011;38793;52.690;6.812;2024-03-17T15:10:16;9.38;;;8.05;;
52918;SDS011;38793;52.690;6.812;2024-03-17T15:12:48;7.90;;;7.05;;
52918;SDS011;38793;52.690;6.812;2024-03-17T15:17:40;11.43;;;8.70;;
52918;SDS011;38793;52.690;6.812;2024-03-17T15:20:09;12.32;;;8.63;;
52918;SDS011;38793;52.690;6.812;2024-03-17T15:22:50;11.68;;;7.45;;
52918;SDS011;38793;52.690;6.812;2024-03-17T15:25:17;8.40;;;7.55;;
52918;SDS011;38793;52.690;6.812;2024-03-17T15:27:43;11.07;;;8.23;;
52918;SDS011;38793;52.690;6.812;2024-03-17T15:30:13;12.60;;;9.10;;
52918;SDS011;38793;52.690;6.812;2024-03-17T15:32:42;12.07;;;7.75;;
52918;SDS011;38793;52.690;6.812;2024-03-17T15:35:09;13.38;;;8.73;;
52918;SDS011;38793;52.690;6.812;2024-03-17T15:37:36;13.93;;;8.32;;
52918;SDS011;38793;52.690;6.812;2024-03-17T15:40:01;8.93;;;8.13;;